sensor_id;sensor_type;location;lat;lon;timestamp;P1;durP1;ratioP1;P2;durP2;ratioP2
5845;SDS011;2949;50.778;7.094;2022-11-12T00:00:32;15.43;;;8.90;;
5845;SDS011;2949;50.778;7.094;2022-11-12T00:02:58;14.40;;;7.97;;
5845;SDS011;2949;50.778;7.094;2022-11-12T00:05:23;13.03;;;8.03;;
5845;SDS011;2949;50.778;7.094;2022-11-12T00:07:49;14.23;;;8.97;;
5845;SDS011;2949;50.778;7.094;2022-11-12T00:10:15;15.97;;;7.70;;
5845;SDS011;2949;50.778;7.094;2022-11-12T00:12:41;16.03;;;8.80;;
5845;SDS011;2949;50.778;7.094;2022-11-12T00:15:07;23.43;;;9.47;;
5845;SDS011;2949;50.778;7.094;2022-11-12T00:17:34;15.97;;;8.50;;
5845;SDS011;2949;50.778;7.094;2022-11-12T00:19:59;20.47;;;9.10;;
5845;SDS011;2949;50.778;7.094;2022-11-12T00:22:25;15.20;;;8.87;;
5845;SDS011;2949;50.778;7.094;2022-11-12T00:24:50;13.77;;;8.90;;
5845;SDS011;2949;50.778;7.094;2022-11-12T00:27:16;11.37;;;7.63;;
5845;SDS011;2949;50.778;7.094;2022-11-12T00:29:41;14.00;;;8.20;;
5845;SDS011;2949;50.778;7.094;2022-11-12T00:32:07;21.67;;;8.40;;
5845;SDS011;2949;50.778;7.094;2022-11-12T00:34:34;11.93;;;7.67;;
5845;SDS011;2949;50.778;7.094;2022-11-12T00:37:00;14.23;;;8.60;;
5845;SDS011;2949;50.778;7.094;2022-11-12T00:39:25;16.10;;;8.97;;
5845;SDS011;2949;50.778;7.094;2022-11-12T00:41:51;18.53;;;6.77;;
5845;SDS011;2949;50.778;7.094;2022-11-12T00:44:17;12.87;;;8.20;;
5845;SDS011;2949;50.778;7.094;2022-11-12T00:46:43;13.23;;;8.03;;
5845;SDS011;2949;50.778;7.094;2022-11-12T00:49:08;14.30;;;8.20;;
5845;SDS011;2949;50.778;7.094;2022-11-12T00:51:34;10.83;;;7.53;;
5845;SDS011;2949;50.778;7.094;2022-11-12T00:54:00;13.57;;;7.20;;
5845;SDS011;2949;50.778;7.094;2022-11-12T00:56:26;10.60;;;6.57;;
5845;SDS011;2949;50.778;7.094;2022-11-12T00:58:51;10.60;;;6.90;;
5845;SDS011;2949;50.778;7.094;2022-11-12T01:01:17;11.77;;;6.73;;
5845;SDS011;2949;50.778;7.094;2022-11-12T01:03:43;15.40;;;7.40;;
5845;SDS011;2949;50.778;7.094;2022-11-12T01:06:10;13.70;;;6.90;;
5845;SDS011;2949;50.778;7.094;2022-11-12T01:08:38;13.60;;;7.07;;
5845;SDS011;2949;50.778;7.094;2022-11-12T01:11:11;12.67;;;7.07;;
5845;SDS011;2949;50.778;7.094;2022-11-12T01:13:38;16.50;;;7.27;;
5845;SDS011;2949;50.778;7.094;2022-11-12T01:16:07;10.30;;;6.73;;
5845;SDS011;2949;50.778;7.094;2022-11-12T01:18:34;14.30;;;7.60;;
5845;SDS011;2949;50.778;7.094;2022-11-12T01:21:03;12.30;;;8.70;;
5845;SDS011;2949;50.778;7.094;2022-11-12T01:23:33;21.63;;;8.47;;
5845;SDS011;2949;50.778;7.094;2022-11-12T01:26:11;11.70;;;7.67;;
5845;SDS011;2949;50.778;7.094;2022-11-12T01:28:39;17.33;;;8.67;;
5845;SDS011;2949;50.778;7.094;2022-11-12T01:31:15;14.70;;;8.17;;
5845;SDS011;2949;50.778;7.094;2022-11-12T01:33:43;17.83;;;8.50;;
5845;SDS011;2949;50.778;7.094;2022-11-12T01:36:11;10.17;;;7.60;;
5845;SDS011;2949;50.778;7.094;2022-11-12T01:38:38;11.60;;;7.00;;
5845;SDS011;2949;50.778;7.094;2022-11-12T01:41:05;13.50;;;8.33;;
5845;SDS011;2949;50.778;7.094;2022-11-12T01:43:32;18.53;;;8.20;;
5845;SDS011;2949;50.778;7.094;2022-11-12T01:45:58;10.20;;;7.37;;
5845;SDS011;2949;50.778;7.094;2022-11-12T01:48:27;15.10;;;8.03;;
5845;SDS011;2949;50.778;7.094;2022-11-12T01:50:54;11.67;;;7.67;;
5845;SDS011;2949;50.778;7.094;2022-11-12T01:53:21;10.97;;;7.60;;
5845;SDS011;2949;50.778;7.094;2022-11-12T01:55:50;13.07;;;7.57;;
5845;SDS011;2949;50.778;7.094;2022-11-12T01:58:17;17.13;;;9.40;;
5845;SDS011;2949;50.778;7.094;2022-11-12T02:00:44;17.97;;;9.00;;
5845;SDS011;2949;50.778;7.094;2022-11-12T02:03:13;17.23;;;9.97;;
5845;SDS011;2949;50.778;7.094;2022-11-12T02:05:42;18.43;;;10.33;;
5845;SDS011;2949;50.778;7.094;2022-11-12T02:08:10;16.30;;;9.80;;
5845;SDS011;2949;50.778;7.094;2022-11-12T02:10:37;15.33;;;10.57;;
5845;SDS011;2949;50.778;7.094;2022-11-12T02:13:03;15.47;;;8.87;;
5845;SDS011;2949;50.778;7.094;2022-11-12T02:15:48;13.40;;;9.10;;
5845;SDS011;2949;50.778;7.094;2022-11-12T02:18:14;20.93;;;10.50;;
5845;SDS011;2949;50.778;7.094;2022-11-12T02:20:39;17.77;;;10.27;;
5845;SDS011;2949;50.778;7.094;2022-11-12T02:23:06;11.97;;;8.73;;
5845;SDS011;2949;50.778;7.094;2022-11-12T02:25:32;17.47;;;9.37;;
5845;SDS011;2949;50.778;7.094;2022-11-12T02:27:58;17.27;;;9.97;;
5845;SDS011;2949;50.778;7.094;2022-11-12T02:33:08;18.77;;;10.90;;
5845;SDS011;2949;50.778;7.094;2022-11-12T02:35:34;16.80;;;10.57;;
5845;SDS011;2949;50.778;7.094;2022-11-12T02:38:00;17.27;;;9.80;;
5845;SDS011;2949;50.778;7.094;2022-11-12T02:40:25;22.53;;;11.73;;
5845;SDS011;2949;50.778;7.094;2022-11-12T02:42:51;16.10;;;9.70;;
5845;SDS011;2949;50.778;7.094;2022-11-12T02:45:16;15.70;;;9.50;;
5845;SDS011;2949;50.778;7.094;2022-11-12T02:47:43;16.77;;;9.93;;
5845;SDS011;2949;50.778;7.094;2022-11-12T02:50:08;16.50;;;10.43;;
5845;SDS011;2949;50.778;7.094;2022-11-12T02:52:34;18.00;;;10.83;;
5845;SDS011;2949;50.778;7.094;2022-11-12T02:55:00;19.10;;;9.87;;
5845;SDS011;2949;50.778;7.094;2022-11-12T02:57:26;18.13;;;10.63;;
5845;SDS011;2949;50.778;7.094;2022-11-12T02:59:53;23.03;;;10.97;;
5845;SDS011;2949;50.778;7.094;2022-11-12T03:02:19;23.73;;;11.00;;
5845;SDS011;2949;50.778;7.094;2022-11-12T03:04:44;18.60;;;10.63;;
5845;SDS011;2949;50.778;7.094;2022-11-12T03:07:10;18.13;;;11.30;;
5845;SDS011;2949;50.778;7.094;2022-11-12T03:09:35;17.27;;;9.70;;
5845;SDS011;2949;50.778;7.094;2022-11-12T03:12:01;17.90;;;10.90;;
5845;SDS011;2949;50.778;7.094;2022-11-12T03:14:26;18.50;;;10.90;;
5845;SDS011;2949;50.778;7.094;2022-11-12T03:16:52;18.10;;;10.60;;
5845;SDS011;2949;50.778;7.094;2022-11-12T03:19:17;25.00;;;11.03;;
5845;SDS011;2949;50.778;7.094;2022-11-12T03:21:43;18.77;;;11.17;;
5845;SDS011;2949;50.778;7.094;2022-11-12T03:24:08;16.87;;;9.43;;
5845;SDS011;2949;50.778;7.094;2022-11-12T03:26:34;18.67;;;9.97;;
5845;SDS011;2949;50.778;7.094;2022-11-12T03:28:59;19.30;;;10.20;;
5845;SDS011;2949;50.778;7.094;2022-11-12T03:31:24;18.13;;;11.37;;
5845;SDS011;2949;50.778;7.094;2022-11-12T03:33:50;25.87;;;10.80;;
5845;SDS011;2949;50.778;7.094;2022-11-12T03:36:16;15.80;;;9.40;;
5845;SDS011;2949;50.778;7.094;2022-11-12T03:38:41;21.47;;;11.00;;
5845;SDS011;2949;50.778;7.094;2022-11-12T03:41:07;19.07;;;10.93;;
5845;SDS011;2949;50.778;7.094;2022-11-12T03:43:32;20.00;;;10.90;;
5845;SDS011;2949;50.778;7.094;2022-11-12T03:45:58;20.77;;;11.10;;
5845;SDS011;2949;50.778;7.094;2022-11-12T03:48:23;17.73;;;9.83;;
5845;SDS011;2949;50.778;7.094;2022-11-12T03:50:50;19.00;;;10.80;;
5845;SDS011;2949;50.778;7.094;2022-11-12T03:53:15;18.23;;;11.43;;
5845;SDS011;2949;50.778;7.094;2022-11-12T03:55:41;17.60;;;9.00;;
5845;SDS011;2949;50.778;7.094;2022-11-12T03:58:06;21.27;;;11.67;;
5845;SDS011;2949;50.778;7.094;2022-11-12T04:00:32;23.67;;;10.37;;
5845;SDS011;2949;50.778;7.094;2022-11-12T04:02:58;19.77;;;11.03;;
5845;SDS011;2949;50.778;7.094;2022-11-12T04:05:24;17.03;;;11.07;;
5845;SDS011;2949;50.778;7.094;2022-11-12T04:08:13;24.40;;;12.70;;
5845;SDS011;2949;50.778;7.094;2022-11-12T04:10:59;23.50;;;11.90;;
5845;SDS011;2949;50.778;7.094;2022-11-12T04:13:25;20.93;;;11.50;;
5845;SDS011;2949;50.778;7.094;2022-11-12T04:15:54;21.80;;;11.40;;
5845;SDS011;2949;50.778;7.094;2022-11-12T04:18:43;24.57;;;12.33;;
5845;SDS011;2949;50.778;7.094;2022-11-12T04:21:30;21.33;;;12.53;;
5845;SDS011;2949;50.778;7.094;2022-11-12T04:24:40;18.80;;;10.80;;
5845;SDS011;2949;50.778;7.094;2022-11-12T04:27:27;21.47;;;11.97;;
5845;SDS011;2949;50.778;7.094;2022-11-12T04:29:54;21.67;;;12.13;;
5845;SDS011;2949;50.778;7.094;2022-11-12T04:32:43;24.07;;;11.93;;
5845;SDS011;2949;50.778;7.094;2022-11-12T04:35:14;17.87;;;11.13;;
5845;SDS011;2949;50.778;7.094;2022-11-12T04:37:40;22.90;;;12.00;;
5845;SDS011;2949;50.778;7.094;2022-11-12T04:40:10;23.30;;;12.30;;
5845;SDS011;2949;50.778;7.094;2022-11-12T04:42:55;22.70;;;12.53;;
5845;SDS011;2949;50.778;7.094;2022-11-12T04:45:40;21.50;;;12.23;;
5845;SDS011;2949;50.778;7.094;2022-11-12T04:48:08;19.90;;;11.90;;
5845;SDS011;2949;50.778;7.094;2022-11-12T04:50:33;23.47;;;12.43;;
5845;SDS011;2949;50.778;7.094;2022-11-12T04:52:59;21.53;;;12.50;;
5845;SDS011;2949;50.778;7.094;2022-11-12T04:55:25;22.23;;;12.03;;
5845;SDS011;2949;50.778;7.094;2022-11-12T04:57:50;25.50;;;12.37;;
5845;SDS011;2949;50.778;7.094;2022-11-12T05:00:16;23.13;;;11.67;;
5845;SDS011;2949;50.778;7.094;2022-11-12T05:02:42;25.50;;;11.53;;
5845;SDS011;2949;50.778;7.094;2022-11-12T05:05:07;23.67;;;12.23;;
5845;SDS011;2949;50.778;7.094;2022-11-12T05:07:33;21.53;;;12.17;;
5845;SDS011;2949;50.778;7.094;2022-11-12T05:09:58;22.27;;;12.57;;
5845;SDS011;2949;50.778;7.094;2022-11-12T05:12:24;29.27;;;13.50;;
5845;SDS011;2949;50.778;7.094;2022-11-12T05:14:49;23.20;;;12.90;;
5845;SDS011;2949;50.778;7.094;2022-11-12T05:17:15;28.53;;;14.43;;
5845;SDS011;2949;50.778;7.094;2022-11-12T05:19:40;22.37;;;12.23;;
5845;SDS011;2949;50.778;7.094;2022-11-12T05:22:06;26.63;;;12.90;;
5845;SDS011;2949;50.778;7.094;2022-11-12T05:24:34;23.23;;;12.97;;
5845;SDS011;2949;50.778;7.094;2022-11-12T05:27:06;22.87;;;12.50;;
5845;SDS011;2949;50.778;7.094;2022-11-12T05:29:36;24.40;;;11.70;;
5845;SDS011;2949;50.778;7.094;2022-11-12T05:32:02;21.10;;;11.60;;
5845;SDS011;2949;50.778;7.094;2022-11-12T05:34:29;23.53;;;12.27;;
5845;SDS011;2949;50.778;7.094;2022-11-12T05:36:55;20.70;;;11.23;;
5845;SDS011;2949;50.778;7.094;2022-11-12T05:39:20;26.97;;;12.03;;
5845;SDS011;2949;50.778;7.094;2022-11-12T05:41:46;21.30;;;11.60;;
5845;SDS011;2949;50.778;7.094;2022-11-12T05:44:12;23.83;;;12.40;;
5845;SDS011;2949;50.778;7.094;2022-11-12T05:46:38;21.13;;;11.80;;
5845;SDS011;2949;50.778;7.094;2022-11-12T05:49:03;18.93;;;10.20;;
5845;SDS011;2949;50.778;7.094;2022-11-12T05:51:29;24.53;;;10.77;;
5845;SDS011;2949;50.778;7.094;2022-11-12T05:53:54;20.80;;;11.70;;
5845;SDS011;2949;50.778;7.094;2022-11-12T05:56:20;20.90;;;11.03;;
5845;SDS011;2949;50.778;7.094;2022-11-12T05:58:45;18.77;;;11.47;;
5845;SDS011;2949;50.778;7.094;2022-11-12T06:01:11;20.27;;;11.47;;
5845;SDS011;2949;50.778;7.094;2022-11-12T06:03:37;22.00;;;10.80;;
5845;SDS011;2949;50.778;7.094;2022-11-12T06:06:02;18.00;;;10.97;;
5845;SDS011;2949;50.778;7.094;2022-11-12T06:08:28;19.03;;;10.20;;
5845;SDS011;2949;50.778;7.094;2022-11-12T06:10:53;16.43;;;8.33;;
5845;SDS011;2949;50.778;7.094;2022-11-12T06:13:20;17.87;;;8.10;;
5845;SDS011;2949;50.778;7.094;2022-11-12T06:15:47;18.60;;;10.23;;
5845;SDS011;2949;50.778;7.094;2022-11-12T06:18:12;20.30;;;9.63;;
5845;SDS011;2949;50.778;7.094;2022-11-12T06:20:38;20.97;;;10.40;;
5845;SDS011;2949;50.778;7.094;2022-11-12T06:23:04;18.87;;;10.80;;
5845;SDS011;2949;50.778;7.094;2022-11-12T06:25:29;17.87;;;10.27;;
5845;SDS011;2949;50.778;7.094;2022-11-12T06:27:55;18.10;;;7.70;;
5845;SDS011;2949;50.778;7.094;2022-11-12T06:30:20;14.27;;;9.23;;
5845;SDS011;2949;50.778;7.094;2022-11-12T06:32:46;18.20;;;9.13;;
5845;SDS011;2949;50.778;7.094;2022-11-12T06:35:13;14.13;;;8.43;;
5845;SDS011;2949;50.778;7.094;2022-11-12T06:37:39;15.27;;;9.67;;
5845;SDS011;2949;50.778;7.094;2022-11-12T06:40:05;15.90;;;9.30;;
5845;SDS011;2949;50.778;7.094;2022-11-12T06:42:31;12.33;;;8.63;;
5845;SDS011;2949;50.778;7.094;2022-11-12T06:44:57;17.77;;;9.70;;
5845;SDS011;2949;50.778;7.094;2022-11-12T06:47:22;19.00;;;10.20;;
5845;SDS011;2949;50.778;7.094;2022-11-12T06:49:48;21.83;;;10.73;;
5845;SDS011;2949;50.778;7.094;2022-11-12T06:52:13;17.07;;;10.40;;
5845;SDS011;2949;50.778;7.094;2022-11-12T06:54:39;17.07;;;8.60;;
5845;SDS011;2949;50.778;7.094;2022-11-12T06:57:05;17.33;;;9.87;;
5845;SDS011;2949;50.778;7.094;2022-11-12T06:59:30;14.63;;;8.70;;
5845;SDS011;2949;50.778;7.094;2022-11-12T07:01:56;12.57;;;7.83;;
5845;SDS011;2949;50.778;7.094;2022-11-12T07:04:22;23.50;;;9.87;;
5845;SDS011;2949;50.778;7.094;2022-11-12T07:06:48;17.30;;;10.20;;
5845;SDS011;2949;50.778;7.094;2022-11-12T07:09:14;18.50;;;9.60;;
5845;SDS011;2949;50.778;7.094;2022-11-12T07:11:39;14.67;;;8.60;;
5845;SDS011;2949;50.778;7.094;2022-11-12T07:14:05;19.27;;;9.90;;
5845;SDS011;2949;50.778;7.094;2022-11-12T07:16:31;16.77;;;9.50;;
5845;SDS011;2949;50.778;7.094;2022-11-12T07:18:57;15.63;;;9.10;;
5845;SDS011;2949;50.778;7.094;2022-11-12T07:21:22;11.50;;;5.97;;
5845;SDS011;2949;50.778;7.094;2022-11-12T07:23:49;14.13;;;9.03;;
5845;SDS011;2949;50.778;7.094;2022-11-12T07:26:16;17.17;;;8.83;;
5845;SDS011;2949;50.778;7.094;2022-11-12T07:28:46;14.60;;;7.87;;
5845;SDS011;2949;50.778;7.094;2022-11-12T07:31:14;12.83;;;7.00;;
5845;SDS011;2949;50.778;7.094;2022-11-12T07:33:40;14.80;;;7.60;;
5845;SDS011;2949;50.778;7.094;2022-11-12T07:36:07;13.93;;;6.97;;
5845;SDS011;2949;50.778;7.094;2022-11-12T07:38:35;14.50;;;7.80;;
5845;SDS011;2949;50.778;7.094;2022-11-12T07:41:07;14.67;;;8.43;;
5845;SDS011;2949;50.778;7.094;2022-11-12T07:43:36;17.10;;;8.17;;
5845;SDS011;2949;50.778;7.094;2022-11-12T07:46:04;15.70;;;8.40;;
5845;SDS011;2949;50.778;7.094;2022-11-12T07:48:31;12.67;;;7.00;;
5845;SDS011;2949;50.778;7.094;2022-11-12T07:50:58;15.47;;;7.30;;
5845;SDS011;2949;50.778;7.094;2022-11-12T07:53:25;12.90;;;7.77;;
5845;SDS011;2949;50.778;7.094;2022-11-12T07:55:52;13.43;;;7.80;;
5845;SDS011;2949;50.778;7.094;2022-11-12T07:58:18;10.30;;;7.40;;
5845;SDS011;2949;50.778;7.094;2022-11-12T08:00:44;9.57;;;7.70;;
5845;SDS011;2949;50.778;7.094;2022-11-12T08:03:09;12.00;;;6.33;;
5845;SDS011;2949;50.778;7.094;2022-11-12T08:05:35;5.50;;;4.27;;
5845;SDS011;2949;50.778;7.094;2022-11-12T08:08:00;5.20;;;4.60;;
5845;SDS011;2949;50.778;7.094;2022-11-12T08:10:26;5.70;;;4.47;;
5845;SDS011;2949;50.778;7.094;2022-11-12T08:12:54;7.30;;;4.60;;
5845;SDS011;2949;50.778;7.094;2022-11-12T08:15:20;5.70;;;4.17;;
5845;SDS011;2949;50.778;7.094;2022-11-12T08:17:45;6.43;;;4.63;;
5845;SDS011;2949;50.778;7.094;2022-11-12T08:20:11;4.60;;;4.03;;
5845;SDS011;2949;50.778;7.094;2022-11-12T08:22:37;4.30;;;3.90;;
5845;SDS011;2949;50.778;7.094;2022-11-12T08:25:02;6.63;;;5.17;;
5845;SDS011;2949;50.778;7.094;2022-11-12T08:27:28;5.27;;;4.27;;
5845;SDS011;2949;50.778;7.094;2022-11-12T08:29:53;9.23;;;4.17;;
5845;SDS011;2949;50.778;7.094;2022-11-12T08:32:19;10.20;;;4.37;;
5845;SDS011;2949;50.778;7.094;2022-11-12T08:34:45;8.23;;;3.77;;
5845;SDS011;2949;50.778;7.094;2022-11-12T08:37:10;5.20;;;3.90;;
5845;SDS011;2949;50.778;7.094;2022-11-12T08:39:37;4.23;;;3.13;;
5845;SDS011;2949;50.778;7.094;2022-11-12T08:42:04;3.23;;;2.93;;
5845;SDS011;2949;50.778;7.094;2022-11-12T08:44:29;3.43;;;3.10;;
5845;SDS011;2949;50.778;7.094;2022-11-12T08:46:55;3.47;;;3.17;;
5845;SDS011;2949;50.778;7.094;2022-11-12T08:49:21;5.83;;;3.50;;
5845;SDS011;2949;50.778;7.094;2022-11-12T08:51:46;3.97;;;3.67;;
5845;SDS011;2949;50.778;7.094;2022-11-12T08:54:12;2.90;;;2.70;;
5845;SDS011;2949;50.778;7.094;2022-11-12T08:56:37;5.97;;;4.00;;
5845;SDS011;2949;50.778;7.094;2022-11-12T08:59:03;3.80;;;3.50;;
5845;SDS011;2949;50.778;7.094;2022-11-12T09:01:30;4.30;;;3.40;;
5845;SDS011;2949;50.778;7.094;2022-11-12T09:03:55;5.23;;;2.90;;
5845;SDS011;2949;50.778;7.094;2022-11-12T09:06:21;5.43;;;3.87;;
5845;SDS011;2949;50.778;7.094;2022-11-12T09:08:46;3.23;;;3.03;;
5845;SDS011;2949;50.778;7.094;2022-11-12T09:11:12;3.77;;;3.40;;
5845;SDS011;2949;50.778;7.094;2022-11-12T09:13:37;3.93;;;3.20;;
5845;SDS011;2949;50.778;7.094;2022-11-12T09:16:04;3.90;;;3.60;;
5845;SDS011;2949;50.778;7.094;2022-11-12T09:18:33;6.73;;;3.87;;
5845;SDS011;2949;50.778;7.094;2022-11-12T09:21:00;7.77;;;4.07;;
5845;SDS011;2949;50.778;7.094;2022-11-12T09:23:27;7.70;;;5.07;;
5845;SDS011;2949;50.778;7.094;2022-11-12T09:25:53;5.63;;;4.37;;
5845;SDS011;2949;50.778;7.094;2022-11-12T09:28:20;5.70;;;4.27;;
5845;SDS011;2949;50.778;7.094;2022-11-12T09:30:47;6.27;;;4.10;;
5845;SDS011;2949;50.778;7.094;2022-11-12T09:33:25;6.87;;;4.83;;
5845;SDS011;2949;50.778;7.094;2022-11-12T09:38:55;6.60;;;4.40;;
5845;SDS011;2949;50.778;7.094;2022-11-12T09:41:31;5.93;;;5.20;;
5845;SDS011;2949;50.778;7.094;2022-11-12T09:44:14;12.40;;;4.90;;
5845;SDS011;2949;50.778;7.094;2022-11-12T09:46:49;7.10;;;5.00;;
5845;SDS011;2949;50.778;7.094;2022-11-12T09:54:31;5.73;;;5.07;;
5845;SDS011;2949;50.778;7.094;2022-11-12T09:56:58;8.70;;;5.43;;
5845;SDS011;2949;50.778;7.094;2022-11-12T09:59:26;4.90;;;4.40;;
5845;SDS011;2949;50.778;7.094;2022-11-12T10:05:00;7.30;;;4.70;;
5845;SDS011;2949;50.778;7.094;2022-11-12T10:07:45;6.10;;;4.80;;
5845;SDS011;2949;50.778;7.094;2022-11-12T10:10:17;4.43;;;4.03;;
5845;SDS011;2949;50.778;7.094;2022-11-12T10:13:00;4.80;;;4.40;;
5845;SDS011;2949;50.778;7.094;2022-11-12T10:16:01;4.67;;;4.23;;
5845;SDS011;2949;50.778;7.094;2022-11-12T10:21:50;4.60;;;4.13;;
5845;SDS011;2949;50.778;7.094;2022-11-12T10:24:18;6.70;;;5.07;;
5845;SDS011;2949;50.778;7.094;2022-11-12T10:26:45;3.90;;;3.60;;
5845;SDS011;2949;50.778;7.094;2022-11-12T10:31:56;5.90;;;4.13;;
5845;SDS011;2949;50.778;7.094;2022-11-12T10:34:24;6.30;;;5.10;;
5845;SDS011;2949;50.778;7.094;2022-11-12T10:36:51;5.20;;;4.63;;
5845;SDS011;2949;50.778;7.094;2022-11-12T10:39:35;28.00;;;10.20;;
5845;SDS011;2949;50.778;7.094;2022-11-12T10:42:07;7.27;;;4.40;;
5845;SDS011;2949;50.778;7.094;2022-11-12T10:44:38;5.70;;;4.53;;
5845;SDS011;2949;50.778;7.094;2022-11-12T10:52:46;13.33;;;5.57;;
5845;SDS011;2949;50.778;7.094;2022-11-12T10:55:28;10.17;;;6.80;;
5845;SDS011;2949;50.778;7.094;2022-11-12T10:58:04;10.07;;;5.43;;
5845;SDS011;2949;50.778;7.094;2022-11-12T11:00:36;6.90;;;4.80;;
5845;SDS011;2949;50.778;7.094;2022-11-12T11:03:16;5.97;;;4.70;;
5845;SDS011;2949;50.778;7.094;2022-11-12T11:05:53;7.13;;;4.70;;
5845;SDS011;2949;50.778;7.094;2022-11-12T11:08:33;5.27;;;4.47;;
5845;SDS011;2949;50.778;7.094;2022-11-12T11:13:43;6.53;;;4.47;;
5845;SDS011;2949;50.778;7.094;2022-11-12T11:16:13;5.37;;;4.60;;
5845;SDS011;2949;50.778;7.094;2022-11-12T11:18:48;7.83;;;4.00;;
5845;SDS011;2949;50.778;7.094;2022-11-12T11:24:17;5.20;;;3.90;;
5845;SDS011;2949;50.778;7.094;2022-11-12T11:26:59;7.77;;;4.87;;
5845;SDS011;2949;50.778;7.094;2022-11-12T11:35:45;6.03;;;4.57;;
5845;SDS011;2949;50.778;7.094;2022-11-12T11:38:44;6.47;;;3.90;;
5845;SDS011;2949;50.778;7.094;2022-11-12T11:41:32;33.60;;;6.97;;
5845;SDS011;2949;50.778;7.094;2022-11-12T11:44:20;4.83;;;3.60;;
5845;SDS011;2949;50.778;7.094;2022-11-12T11:52:24;7.20;;;4.27;;
5845;SDS011;2949;50.778;7.094;2022-11-12T11:57:51;5.23;;;4.57;;
5845;SDS011;2949;50.778;7.094;2022-11-12T12:00:25;7.47;;;4.77;;
5845;SDS011;2949;50.778;7.094;2022-11-12T12:06:03;5.77;;;4.90;;
5845;SDS011;2949;50.778;7.094;2022-11-12T12:08:41;8.80;;;5.83;;
5845;SDS011;2949;50.778;7.094;2022-11-12T12:14:23;5.90;;;5.00;;
5845;SDS011;2949;50.778;7.094;2022-11-12T12:22:55;10.90;;;4.70;;
5845;SDS011;2949;50.778;7.094;2022-11-12T12:25:28;5.60;;;4.13;;
5845;SDS011;2949;50.778;7.094;2022-11-12T12:28:09;14.20;;;4.93;;
5845;SDS011;2949;50.778;7.094;2022-11-12T12:30:50;6.30;;;5.30;;
5845;SDS011;2949;50.778;7.094;2022-11-12T12:35:55;8.47;;;4.40;;
5845;SDS011;2949;50.778;7.094;2022-11-12T12:41:28;9.33;;;5.40;;
5845;SDS011;2949;50.778;7.094;2022-11-12T12:44:03;6.93;;;4.67;;
5845;SDS011;2949;50.778;7.094;2022-11-12T12:46:32;5.47;;;4.40;;
5845;SDS011;2949;50.778;7.094;2022-11-12T12:49:04;6.70;;;4.63;;
5845;SDS011;2949;50.778;7.094;2022-11-12T12:51:31;6.23;;;4.60;;
5845;SDS011;2949;50.778;7.094;2022-11-12T12:53:58;4.87;;;4.00;;
5845;SDS011;2949;50.778;7.094;2022-11-12T12:58:55;6.53;;;4.80;;
5845;SDS011;2949;50.778;7.094;2022-11-12T13:09:03;5.97;;;3.97;;
5845;SDS011;2949;50.778;7.094;2022-11-12T13:19:36;5.30;;;4.33;;
5845;SDS011;2949;50.778;7.094;2022-11-12T13:30:07;5.50;;;4.10;;
5845;SDS011;2949;50.778;7.094;2022-11-12T13:37:47;8.83;;;5.03;;
5845;SDS011;2949;50.778;7.094;2022-11-12T13:46:08;4.93;;;3.90;;
5845;SDS011;2949;50.778;7.094;2022-11-12T13:48:54;9.67;;;6.17;;
5845;SDS011;2949;50.778;7.094;2022-11-12T13:54:23;6.87;;;4.10;;
5845;SDS011;2949;50.778;7.094;2022-11-12T13:56:50;5.80;;;4.10;;
5845;SDS011;2949;50.778;7.094;2022-11-12T13:59:18;5.37;;;3.93;;
5845;SDS011;2949;50.778;7.094;2022-11-12T14:01:45;10.43;;;5.23;;
5845;SDS011;2949;50.778;7.094;2022-11-12T14:04:13;7.33;;;4.10;;
5845;SDS011;2949;50.778;7.094;2022-11-12T14:09:26;3.97;;;3.40;;
5845;SDS011;2949;50.778;7.094;2022-11-12T14:20:46;10.20;;;5.43;;
5845;SDS011;2949;50.778;7.094;2022-11-12T14:23:14;5.30;;;4.37;;
5845;SDS011;2949;50.778;7.094;2022-11-12T14:25:46;7.40;;;4.30;;
5845;SDS011;2949;50.778;7.094;2022-11-12T14:28:32;6.80;;;4.47;;
5845;SDS011;2949;50.778;7.094;2022-11-12T14:31:00;5.43;;;3.90;;
5845;SDS011;2949;50.778;7.094;2022-11-12T14:33:27;4.90;;;3.70;;
5845;SDS011;2949;50.778;7.094;2022-11-12T14:36:01;5.00;;;3.33;;
5845;SDS011;2949;50.778;7.094;2022-11-12T14:38:32;4.80;;;3.20;;
5845;SDS011;2949;50.778;7.094;2022-11-12T14:43:46;9.30;;;4.00;;
5845;SDS011;2949;50.778;7.094;2022-11-12T14:46:19;5.93;;;4.20;;
5845;SDS011;2949;50.778;7.094;2022-11-12T14:48:55;5.93;;;3.90;;
5845;SDS011;2949;50.778;7.094;2022-11-12T14:51:30;5.60;;;3.70;;
5845;SDS011;2949;50.778;7.094;2022-11-12T14:53:59;3.73;;;3.30;;
5845;SDS011;2949;50.778;7.094;2022-11-12T14:58:58;3.90;;;3.37;;
5845;SDS011;2949;50.778;7.094;2022-11-12T15:01:26;4.33;;;3.43;;
5845;SDS011;2949;50.778;7.094;2022-11-12T15:04:02;5.83;;;3.27;;
5845;SDS011;2949;50.778;7.094;2022-11-12T15:06:30;7.20;;;4.37;;
5845;SDS011;2949;50.778;7.094;2022-11-12T15:08:57;7.67;;;4.03;;
5845;SDS011;2949;50.778;7.094;2022-11-12T15:11:25;8.57;;;4.60;;
5845;SDS011;2949;50.778;7.094;2022-11-12T15:14:08;5.50;;;3.90;;
5845;SDS011;2949;50.778;7.094;2022-11-12T15:16:43;7.47;;;4.20;;
5845;SDS011;2949;50.778;7.094;2022-11-12T15:21:43;7.07;;;5.00;;
5845;SDS011;2949;50.778;7.094;2022-11-12T15:24:18;5.57;;;4.43;;
5845;SDS011;2949;50.778;7.094;2022-11-12T15:30:07;6.77;;;4.67;;
5845;SDS011;2949;50.778;7.094;2022-11-12T15:33:35;6.80;;;5.03;;
5845;SDS011;2949;50.778;7.094;2022-11-12T15:35:45;5.93;;;4.53;;
5845;SDS011;2949;50.778;7.094;2022-11-12T15:38:25;16.93;;;4.53;;
5845;SDS011;2949;50.778;7.094;2022-11-12T15:40:55;6.00;;;4.70;;
5845;SDS011;2949;50.778;7.094;2022-11-12T15:43:22;8.60;;;4.87;;
5845;SDS011;2949;50.778;7.094;2022-11-12T15:45:51;7.47;;;6.10;;
5845;SDS011;2949;50.778;7.094;2022-11-12T15:48:17;7.43;;;5.63;;
5845;SDS011;2949;50.778;7.094;2022-11-12T15:50:43;7.47;;;5.80;;
5845;SDS011;2949;50.778;7.094;2022-11-12T15:53:09;8.10;;;5.57;;
5845;SDS011;2949;50.778;7.094;2022-11-12T15:55:35;8.47;;;6.40;;
5845;SDS011;2949;50.778;7.094;2022-11-12T15:58:02;7.57;;;5.50;;
5845;SDS011;2949;50.778;7.094;2022-11-12T16:00:31;8.20;;;5.80;;
5845;SDS011;2949;50.778;7.094;2022-11-12T16:03:02;7.50;;;5.20;;
5845;SDS011;2949;50.778;7.094;2022-11-12T16:05:42;6.47;;;5.33;;
5845;SDS011;2949;50.778;7.094;2022-11-12T16:08:08;8.23;;;6.03;;
5845;SDS011;2949;50.778;7.094;2022-11-12T16:10:34;8.20;;;6.63;;
5845;SDS011;2949;50.778;7.094;2022-11-12T16:13:00;6.30;;;5.23;;
5845;SDS011;2949;50.778;7.094;2022-11-12T16:15:27;5.73;;;5.00;;
5845;SDS011;2949;50.778;7.094;2022-11-12T16:17:53;8.97;;;5.70;;
5845;SDS011;2949;50.778;7.094;2022-11-12T16:20:24;7.27;;;5.47;;
5845;SDS011;2949;50.778;7.094;2022-11-12T16:22:52;9.30;;;5.30;;
5845;SDS011;2949;50.778;7.094;2022-11-12T16:25:17;6.40;;;5.23;;
5845;SDS011;2949;50.778;7.094;2022-11-12T16:27:44;9.50;;;6.53;;
5845;SDS011;2949;50.778;7.094;2022-11-12T16:30:14;9.03;;;6.10;;
5845;SDS011;2949;50.778;7.094;2022-11-12T16:32:44;23.07;;;12.27;;
5845;SDS011;2949;50.778;7.094;2022-11-12T16:35:10;11.57;;;7.43;;
5845;SDS011;2949;50.778;7.094;2022-11-12T16:37:36;10.43;;;7.10;;
5845;SDS011;2949;50.778;7.094;2022-11-12T16:40:03;13.77;;;6.00;;
5845;SDS011;2949;50.778;7.094;2022-11-12T16:42:35;9.50;;;6.53;;
5845;SDS011;2949;50.778;7.094;2022-11-12T16:45:01;9.83;;;6.30;;
5845;SDS011;2949;50.778;7.094;2022-11-12T16:47:26;17.93;;;7.17;;
5845;SDS011;2949;50.778;7.094;2022-11-12T16:49:52;20.50;;;11.73;;
5845;SDS011;2949;50.778;7.094;2022-11-12T16:52:17;10.07;;;6.90;;
5845;SDS011;2949;50.778;7.094;2022-11-12T16:54:43;9.63;;;6.60;;
5845;SDS011;2949;50.778;7.094;2022-11-12T16:57:09;9.07;;;6.83;;
5845;SDS011;2949;50.778;7.094;2022-11-12T16:59:35;11.10;;;6.60;;
5845;SDS011;2949;50.778;7.094;2022-11-12T17:02:00;9.43;;;6.40;;
5845;SDS011;2949;50.778;7.094;2022-11-12T17:04:26;9.70;;;6.90;;
5845;SDS011;2949;50.778;7.094;2022-11-12T17:06:52;10.53;;;6.23;;
5845;SDS011;2949;50.778;7.094;2022-11-12T17:09:17;13.20;;;6.73;;
5845;SDS011;2949;50.778;7.094;2022-11-12T17:11:43;10.20;;;7.30;;
5845;SDS011;2949;50.778;7.094;2022-11-12T17:14:08;10.47;;;7.33;;
5845;SDS011;2949;50.778;7.094;2022-11-12T17:16:34;11.30;;;7.37;;
5845;SDS011;2949;50.778;7.094;2022-11-12T17:19:00;12.17;;;7.17;;